createdAt,value
2022-12-25T00:03:27.631Z,99308.19
2022-12-25T00:09:30.035Z,99314.84
2022-12-25T00:15:31.937Z,99323.59
2022-12-25T00:21:33.833Z,99296.88
2022-12-25T00:27:37.718Z,99301.69
2022-12-25T00:33:42.152Z,99326.41
2022-12-25T00:39:44.043Z,99339.06
2022-12-25T00:45:58.856Z,99346.38
2022-12-25T00:52:00.837Z,99352.81
2022-12-25T00:58:02.734Z,99370.28
2022-12-25T01:04:05.588Z,99362.34
2022-12-25T01:10:22.304Z,99374.81
2022-12-25T01:16:24.510Z,99372.00
2022-12-25T01:22:26.912Z,99354.88
2022-12-25T01:28:28.793Z,99366.81
2022-12-25T01:34:30.664Z,99379.97
2022-12-25T01:40:34.916Z,99388.97
2022-12-25T01:46:37.155Z,99371.97
2022-12-25T01:52:39.130Z,99370.81
2022-12-25T01:58:41.471Z,99353.34
2022-12-25T02:05:00.032Z,99351.22
2022-12-25T02:11:01.938Z,99351.34
2022-12-25T02:17:14.701Z,99367.78
2022-12-25T02:23:56.419Z,99376.94
2022-12-25T02:30:07.100Z,99378.66
2022-12-25T02:36:14.064Z,99364.16
2022-12-25T02:42:48.788Z,99369.72
2022-12-25T02:49:51.511Z,99362.78
2022-12-25T02:56:13.776Z,99381.53
2022-12-25T03:02:37.164Z,99371.56
2022-12-25T03:08:44.020Z,99370.84
2022-12-25T03:15:04.784Z,99368.97
2022-12-25T03:21:25.447Z,99365.06
2022-12-25T03:27:32.041Z,99367.28
2022-12-25T03:34:14.114Z,99385.09
2022-12-25T03:40:48.153Z,99386.66
2022-12-25T03:47:24.310Z,99367.91
2022-12-25T03:54:09.132Z,99358.47
2022-12-25T04:00:30.291Z,99350.41
2022-12-25T04:06:50.718Z,99343.72
2022-12-25T04:13:11.185Z,99332.38
2022-12-25T04:19:31.512Z,99352.59
2022-12-25T04:25:51.914Z,99335.47
2022-12-25T04:32:12.361Z,99337.72
2022-12-25T04:38:14.257Z,99329.16
2022-12-25T04:44:16.159Z,99314.47
2022-12-25T04:50:18.218Z,99313.41
2022-12-25T04:56:21.555Z,99302.66
2022-12-25T05:02:23.686Z,99326.66
2022-12-25T05:08:25.827Z,99313.19
2022-12-25T05:14:27.868Z,99289.94
2022-12-25T05:20:33.360Z,99282.81
2022-12-25T05:26:38.193Z,99304.09
2022-12-25T05:32:40.114Z,99298.66
2022-12-25T05:38:42.002Z,99311.75
2022-12-25T05:44:43.928Z,99326.16
2022-12-25T05:50:45.937Z,99316.75
2022-12-25T05:56:47.840Z,99315.16
2022-12-25T06:02:49.881Z,99312.34
2022-12-25T06:08:55.200Z,99304.41
2022-12-25T06:14:57.143Z,99309.31
2022-12-25T06:20:59.031Z,99311.50
2022-12-25T06:27:01.291Z,99303.66
2022-12-25T06:33:03.389Z,99293.63
2022-12-25T06:39:05.334Z,99285.34
2022-12-25T06:45:07.935Z,99277.81
2022-12-25T06:51:09.853Z,99291.72
2022-12-25T06:57:11.822Z,99280.41
2022-12-25T07:03:20.936Z,99274.28
2022-12-25T07:09:22.898Z,99276.22
2022-12-25T07:15:24.784Z,99283.72
2022-12-25T07:21:26.671Z,99274.72
2022-12-25T07:27:28.557Z,99277.84
2022-12-25T07:33:31.040Z,99284.69
2022-12-25T07:39:34.490Z,99273.13
2022-12-25T07:45:36.422Z,99276.75
2022-12-25T07:51:38.478Z,99272.63
2022-12-25T07:57:40.568Z,99253.03
2022-12-25T08:03:42.717Z,99235.56
2022-12-25T08:09:44.715Z,99230.69
2022-12-25T08:15:46.649Z,99226.94
2022-12-25T08:21:48.542Z,99231.16
2022-12-25T08:27:50.437Z,99226.66
2022-12-25T08:33:56.156Z,99218.31
2022-12-25T08:39:58.118Z,99228.44
2022-12-25T08:46:00.059Z,99226.81
2022-12-25T08:52:03.187Z,99240.81
2022-12-25T08:58:05.445Z,99243.00
2022-12-25T09:04:07.545Z,99229.19
2022-12-25T09:10:10.624Z,99230.09
2022-12-25T09:16:17.224Z,99235.72
2022-12-25T09:22:19.447Z,99219.53
2022-12-25T09:28:22.042Z,99221.13
2022-12-25T09:34:23.925Z,99195.47
2022-12-25T09:40:30.658Z,99201.84
2022-12-25T09:46:45.575Z,99197.75
2022-12-25T09:53:17.759Z,99183.56
2022-12-25T09:59:27.309Z,99173.53
2022-12-25T10:05:58.889Z,99170.69
2022-12-25T10:12:51.266Z,99156.34
2022-12-25T10:19:15.471Z,99160.22
2022-12-25T10:25:22.424Z,99151.84
2022-12-25T10:31:28.435Z,99119.16
2022-12-25T10:37:30.338Z,99124.81
2022-12-25T10:43:58.613Z,99133.03
2022-12-25T10:50:07.920Z,99115.53
2022-12-25T10:56:19.682Z,99113.16
2022-12-25T11:02:24.335Z,99112.94
2022-12-25T11:08:32.956Z,99103.38
2022-12-25T11:14:34.824Z,99108.69
2022-12-25T11:20:40.045Z,99113.97
2022-12-25T11:26:50.222Z,99085.88
2022-12-25T11:32:56.254Z,99090.31
2022-12-25T11:39:30.873Z,99096.97
2022-12-25T11:45:41.711Z,99105.88
2022-12-25T11:51:49.417Z,99100.53
2022-12-25T11:57:59.043Z,99095.78
2022-12-25T12:04:06.892Z,99094.97
2022-12-25T12:10:17.920Z,99076.63
2022-12-25T12:16:19.902Z,99060.84
2022-12-25T12:22:28.949Z,99055.03
2022-12-25T12:28:44.950Z,99043.44
2022-12-25T12:34:51.553Z,99022.38
2022-12-25T12:40:57.155Z,98993.50
2022-12-25T12:47:00.193Z,99009.09
2022-12-25T12:53:31.315Z,98989.06
2022-12-25T12:59:46.886Z,98985.81
2022-12-25T13:06:02.330Z,98977.16
2022-12-25T13:12:08.783Z,98970.53
2022-12-25T13:18:13.053Z,98956.91
2022-12-25T13:24:25.740Z,98959.41
2022-12-25T13:30:28.173Z,98962.34
2022-12-25T13:36:36.993Z,98940.84
2022-12-25T13:42:39.947Z,98912.28
2022-12-25T13:48:42.904Z,98924.84
2022-12-25T13:55:11.807Z,98904.84
2022-12-25T14:01:16.426Z,98908.09
2022-12-25T14:07:24.204Z,98901.47
2022-12-25T14:13:28.765Z,98872.69
2022-12-25T14:25:51.844Z,98833.97
2022-12-25T14:31:58.809Z,98841.41
2022-12-25T14:38:00.851Z,98821.44
2022-12-25T14:44:36.420Z,98825.97
2022-12-25T14:50:47.268Z,98811.13
2022-12-25T14:56:52.637Z,98804.31
2022-12-25T15:02:57.641Z,98807.22
2022-12-25T15:09:06.828Z,98803.31
2022-12-25T15:15:12.220Z,98804.75
2022-12-25T15:21:34.022Z,98807.34
2022-12-25T15:27:36.445Z,98788.44
2022-12-25T15:33:43.919Z,98764.97
2022-12-25T15:39:46.813Z,98784.59
2022-12-25T15:45:48.689Z,98771.81
2022-12-25T15:51:50.609Z,98782.72
2022-12-25T15:57:54.781Z,98791.97
2022-12-25T16:03:59.338Z,98782.91
2022-12-25T16:10:01.385Z,98763.56
2022-12-25T16:16:05.059Z,98790.75
2022-12-25T16:22:27.459Z,98779.84
2022-12-25T16:28:29.353Z,98776.16
2022-12-25T16:34:31.244Z,98773.06
2022-12-25T16:40:33.221Z,98768.94
2022-12-25T16:46:36.948Z,98779.03
2022-12-25T16:52:38.970Z,98769.13
2022-12-25T16:58:42.728Z,98776.75
2022-12-25T17:04:45.881Z,98769.94
2022-12-25T17:10:47.766Z,98775.72
2022-12-25T17:16:49.751Z,98766.06
2022-12-25T17:22:51.661Z,98756.78
2022-12-25T17:28:57.499Z,98750.41
2022-12-25T17:34:59.369Z,98737.44
2022-12-25T17:41:05.507Z,98728.00
2022-12-25T17:47:07.440Z,98724.69
2022-12-25T17:53:09.640Z,98729.84
2022-12-25T17:59:18.265Z,98728.41
2022-12-25T18:05:20.499Z,98714.59
2022-12-25T18:11:29.098Z,98690.13
2022-12-25T18:17:31.114Z,98703.06
2022-12-25T18:23:33.665Z,98719.53
2022-12-25T18:29:35.569Z,98716.25
2022-12-25T18:35:42.998Z,98704.13
2022-12-25T18:42:03.474Z,98680.03
2022-12-25T18:48:06.478Z,98687.84
2022-12-25T18:54:08.414Z,98697.94
2022-12-25T19:00:10.928Z,98695.66
2022-12-25T19:06:25.616Z,98680.56
2022-12-25T19:12:27.532Z,98681.44
2022-12-25T19:18:29.549Z,98688.41
2022-12-25T19:24:31.695Z,98675.97
2022-12-25T19:30:33.646Z,98678.91
2022-12-25T19:36:36.067Z,98666.31
2022-12-25T19:42:38.032Z,98667.56
2022-12-25T19:48:40.130Z,98656.00
2022-12-25T19:54:42.096Z,98653.59
2022-12-25T20:00:44.050Z,98655.38
2022-12-25T20:06:45.996Z,98656.22
2022-12-25T20:12:47.980Z,98647.78
2022-12-25T20:18:50.382Z,98624.38
2022-12-25T20:24:52.347Z,98644.44
2022-12-25T20:30:55.865Z,98638.88
2022-12-25T20:36:57.758Z,98628.44
2022-12-25T20:42:59.673Z,98645.59
2022-12-25T20:49:02.939Z,98641.38
2022-12-25T20:55:05.340Z,98642.19
2022-12-25T21:01:14.046Z,98652.00
2022-12-25T21:07:16.086Z,98654.28
2022-12-25T21:13:23.979Z,98654.22
2022-12-25T21:19:25.937Z,98648.66
2022-12-25T21:25:27.878Z,98660.69
2022-12-25T21:31:31.040Z,98658.28
2022-12-25T21:37:33.110Z,98664.94
2022-12-25T21:43:36.788Z,98665.16
2022-12-25T21:49:57.195Z,98663.63
2022-12-25T21:56:02.460Z,98656.16
2022-12-25T22:02:11.133Z,98648.56
2022-12-25T22:08:13.490Z,98644.28
2022-12-25T22:14:51.196Z,98643.06
2022-12-25T22:20:55.605Z,98643.66
2022-12-25T22:26:57.540Z,98641.03
2022-12-25T22:32:59.434Z,98656.09
2022-12-25T22:39:01.387Z,98653.38
2022-12-25T22:45:04.624Z,98658.94
2022-12-25T22:51:06.551Z,98655.78
2022-12-25T22:57:08.458Z,98658.94
2022-12-25T23:03:11.068Z,98662.03
2022-12-25T23:09:24.489Z,98649.44
2022-12-25T23:15:28.061Z,98640.28
2022-12-25T23:21:48.810Z,98663.63
2022-12-25T23:27:50.707Z,98652.50
2022-12-25T23:33:52.930Z,98645.97
2022-12-25T23:39:54.850Z,98647.00
2022-12-25T23:45:56.756Z,98652.66
2022-12-25T23:51:58.818Z,98638.41
2022-12-25T23:58:00.719Z,98661.53
